createdAt,value
2018-02-04T00:00:35.194Z,995.3393
2018-02-04T00:01:35.200Z,995.359
2018-02-04T00:02:35.212Z,995.3752
2018-02-04T00:03:35.237Z,995.3618
2018-02-04T00:04:35.203Z,995.3326
2018-02-04T00:05:35.201Z,995.3492
2018-02-04T00:06:35.198Z,995.3773
2018-02-04T00:07:35.205Z,995.3887
2018-02-04T00:08:35.201Z,995.4132
2018-02-04T00:09:35.239Z,995.382
2018-02-04T00:10:35.450Z,995.4023
2018-02-04T00:11:35.370Z,995.4333
2018-02-04T00:12:35.694Z,995.5207
2018-02-04T00:13:35.206Z,995.4802
2018-02-04T00:14:35.223Z,995.4802
2018-02-04T00:15:39.072Z,995.4802
2018-02-04T00:16:35.212Z,995.4604
2018-02-04T00:17:35.210Z,995.4687
2018-02-04T00:18:35.213Z,995.474
2018-02-04T00:19:35.215Z,995.5312
2018-02-04T00:20:35.215Z,995.5072
2018-02-04T00:21:35.248Z,995.5207
2018-02-04T00:22:35.218Z,995.564
2018-02-04T00:23:35.243Z,995.562
2018-02-04T00:24:35.470Z,995.5245
2018-02-04T00:25:35.639Z,995.6055
2018-02-04T00:26:35.221Z,995.5837
2018-02-04T00:27:35.255Z,995.5973
2018-02-04T00:28:35.565Z,995.5671
2018-02-04T00:29:35.973Z,995.6701
2018-02-04T00:30:35.226Z,995.6837
2018-02-04T00:31:35.691Z,995.7107
2018-02-04T00:32:35.227Z,995.6669
2018-02-04T00:33:36.206Z,995.683
2018-02-04T00:34:35.225Z,995.6722
2018-02-04T00:35:35.605Z,995.6694
2018-02-04T00:36:35.838Z,995.7235
2018-02-04T00:37:35.596Z,995.6528
2018-02-04T00:38:35.234Z,995.7017
2018-02-04T00:39:35.796Z,995.7204
2018-02-04T00:40:35.616Z,995.7017
2018-02-04T00:41:35.229Z,995.7505
2018-02-04T00:42:35.468Z,995.7076
2018-02-04T00:43:35.235Z,995.7783
2018-02-04T00:44:35.570Z,995.7648
2018-02-04T00:45:36.488Z,995.7866
2018-02-04T00:46:35.246Z,995.7678
2018-02-04T00:47:35.232Z,995.7678
2018-02-04T00:48:35.240Z,995.8053
2018-02-04T00:49:35.279Z,995.7866
2018-02-04T00:50:35.235Z,995.8712
2018-02-04T00:51:35.284Z,995.8677
2018-02-04T00:52:35.242Z,995.876
2018-02-04T00:53:35.245Z,995.9083
2018-02-04T00:54:35.242Z,995.8625
2018-02-04T00:55:35.456Z,995.8948
2018-02-04T00:56:35.244Z,995.9523
2018-02-04T00:57:35.450Z,995.8895
2018-02-04T00:58:35.244Z,995.9571
2018-02-04T00:59:35.642Z,995.9741
2018-02-04T01:00:35.248Z,995.9707
2018-02-04T01:01:35.247Z,995.9894
2018-02-04T01:02:35.299Z,996.0082
2018-02-04T01:03:35.368Z,996.0569
2018-02-04T01:04:35.251Z,996.0269
2018-02-04T01:05:35.252Z,996.0914
2018-02-04T01:06:35.254Z,996.1216
2018-02-04T01:07:35.743Z,996.1216
2018-02-04T01:08:35.334Z,996.1403
2018-02-04T01:09:35.278Z,996.1396
2018-02-04T01:10:36.269Z,996.1344
2018-02-04T01:11:35.548Z,996.1697
2018-02-04T01:12:35.351Z,996.1292
2018-02-04T01:13:35.591Z,996.1968
2018-02-04T01:14:35.660Z,996.202
2018-02-04T01:15:35.258Z,996.1749
2018-02-04T01:16:35.738Z,996.1584
2018-02-04T01:17:35.273Z,996.1791
2018-02-04T01:18:35.261Z,996.2447
2018-02-04T01:19:35.261Z,996.2614
2018-02-04T01:20:35.296Z,996.2447
2018-02-04T01:21:35.266Z,996.226
2018-02-04T01:22:35.279Z,996.2748
2018-02-04T01:23:35.271Z,996.2665
2018-02-04T01:24:35.309Z,996.253
2018-02-04T01:25:35.284Z,996.2852
2018-02-04T01:26:35.456Z,996.2447
2018-02-04T01:27:35.268Z,996.3071
2018-02-04T01:28:35.501Z,996.2957
2018-02-04T01:29:35.762Z,996.2551
2018-02-04T01:30:35.349Z,996.3174
2018-02-04T01:31:35.274Z,996.358
2018-02-04T01:32:35.888Z,996.3228
2018-02-04T01:33:35.275Z,996.3445
2018-02-04T01:34:35.271Z,996.3196
2018-02-04T01:35:35.460Z,996.306
2018-02-04T01:36:35.718Z,996.4038
2018-02-04T01:37:35.280Z,996.4007
2018-02-04T01:38:35.820Z,996.4059
2018-02-04T01:39:35.447Z,996.3945
2018-02-04T01:40:35.290Z,996.3674
2018-02-04T01:41:35.282Z,996.3865
2018-02-04T01:42:35.314Z,996.321
2018-02-04T01:43:35.294Z,996.3616
2018-02-04T01:44:35.453Z,996.4073
2018-02-04T01:45:35.297Z,996.3719
2018-02-04T01:46:35.716Z,996.3668
2018-02-04T01:47:35.412Z,996.3886
2018-02-04T01:48:35.960Z,996.4073
2018-02-04T01:49:35.556Z,996.4126
2018-02-04T01:50:35.441Z,996.4126
2018-02-04T01:51:35.345Z,996.426
2018-02-04T01:52:35.292Z,996.4094
2018-02-04T01:53:35.290Z,996.4333
2018-02-04T01:54:35.288Z,996.4739
2018-02-04T01:55:35.294Z,996.4438
2018-02-04T01:56:35.758Z,996.5009
2018-02-04T01:57:35.299Z,996.5197
2018-02-04T01:58:35.294Z,996.4514
2018-02-04T01:59:35.334Z,996.5623
2018-02-04T02:00:35.297Z,996.4677
2018-02-04T02:01:35.296Z,996.476
2018-02-04T02:02:35.443Z,996.4649
2018-02-04T02:03:35.971Z,996.5082
2018-02-04T02:04:35.399Z,996.5031
2018-02-04T02:05:35.299Z,996.5519
2018-02-04T02:06:35.371Z,996.5107
2018-02-04T02:07:35.312Z,996.5294
2018-02-04T02:08:35.486Z,996.5023
2018-02-04T02:09:35.304Z,996.4971
2018-02-04T02:10:35.512Z,996.5564
2018-02-04T02:11:35.624Z,996.5637
2018-02-04T02:12:35.362Z,996.5179
2018-02-04T02:13:35.622Z,996.5419
2018-02-04T02:14:35.851Z,996.5221
2018-02-04T02:15:35.308Z,996.5335
2018-02-04T02:16:35.597Z,996.5522
2018-02-04T02:17:35.401Z,996.5659
2018-02-04T02:18:35.311Z,996.6012
2018-02-04T02:19:35.828Z,996.5918
2018-02-04T02:20:35.543Z,996.5783
2018-02-04T02:21:35.309Z,996.5513
2018-02-04T02:22:35.312Z,996.5918
2018-02-04T02:23:35.320Z,996.5326
2018-02-04T02:24:35.397Z,996.5974
2018-02-04T02:25:35.316Z,996.6188
2018-02-04T02:26:35.751Z,996.5867
2018-02-04T02:27:35.926Z,996.5918
2018-02-04T02:28:35.754Z,996.5949
2018-02-04T02:29:35.328Z,996.6053
2018-02-04T02:30:35.486Z,996.5838
2018-02-04T02:31:35.326Z,996.6295
2018-02-04T02:32:35.363Z,996.5994
2018-02-04T02:33:35.327Z,996.6638
2018-02-04T02:34:35.326Z,996.6607
2018-02-04T02:35:35.320Z,996.6473
2018-02-04T02:36:35.372Z,996.7117
2018-02-04T02:37:35.332Z,996.6898
2018-02-04T02:38:35.372Z,996.666
2018-02-04T02:39:35.335Z,996.6577
2018-02-04T02:40:35.337Z,996.7658
2018-02-04T02:41:35.327Z,996.7543
2018-02-04T02:42:35.330Z,996.8188
2018-02-04T02:43:35.332Z,996.8378
2018-02-04T02:44:35.755Z,996.8264
2018-02-04T02:45:35.332Z,996.849
2018-02-04T02:46:35.336Z,996.8593
2018-02-04T02:47:35.335Z,996.8918
2018-02-04T02:48:35.333Z,996.8804
2018-02-04T02:49:35.345Z,996.9646
2018-02-04T02:50:35.467Z,997.0028
2018-02-04T02:51:35.332Z,996.9595
2018-02-04T02:52:35.337Z,996.9429
2018-02-04T02:53:35.346Z,996.9563
2018-02-04T02:54:35.344Z,996.9802
2018-02-04T02:55:35.344Z,997.026
2018-02-04T02:56:35.385Z,996.9938
2018-02-04T02:57:35.344Z,997.026
2018-02-04T02:58:35.343Z,996.974
2018-02-04T02:59:35.362Z,997.0924
2018-02-04T03:00:35.338Z,997.0437
2018-02-04T03:01:35.342Z,997.0457
2018-02-04T03:02:35.873Z,997.0592
2018-02-04T03:03:35.343Z,997.0429
2018-02-04T03:04:35.346Z,997.1105
2018-02-04T03:05:35.356Z,997.1832
2018-02-04T03:06:35.352Z,997.1718
2018-02-04T03:07:35.356Z,997.1312
2018-02-04T03:08:35.752Z,997.1551
2018-02-04T03:09:35.351Z,997.1956
2018-02-04T03:10:35.350Z,997.179
2018-02-04T03:11:35.355Z,997.2549
2018-02-04T03:12:35.355Z,997.2403
2018-02-04T03:13:35.355Z,997.2757
2018-02-04T03:14:35.544Z,997.2944
2018-02-04T03:15:35.354Z,997.2614
2018-02-04T03:16:35.364Z,997.2427
2018-02-04T03:17:35.359Z,997.2697
2018-02-04T03:18:35.356Z,997.2614
2018-02-04T03:19:35.410Z,997.2957
2018-02-04T03:20:35.410Z,997.3143
2018-02-04T03:21:35.359Z,997.3736
2018-02-04T03:22:35.370Z,997.3704
2018-02-04T03:23:35.359Z,997.3777
2018-02-04T03:24:35.358Z,997.4048
2018-02-04T03:25:35.364Z,997.3912
2018-02-04T03:26:35.372Z,997.3935
2018-02-04T03:27:35.368Z,997.4393
2018-02-04T03:28:35.370Z,997.3633
2018-02-04T03:29:35.372Z,997.4362
2018-02-04T03:30:35.537Z,997.5223
2018-02-04T03:31:35.747Z,997.5037
2018-02-04T03:32:35.368Z,997.514
2018-02-04T03:33:35.370Z,997.5212
2018-02-04T03:34:35.372Z,997.592
2018-02-04T03:35:35.371Z,997.5514
2018-02-04T03:36:35.381Z,997.5701
2018-02-04T03:37:35.530Z,997.5963
2018-02-04T03:38:35.374Z,997.6262
2018-02-04T03:39:35.374Z,997.6993
2018-02-04T03:40:35.377Z,997.6691
2018-02-04T03:41:35.381Z,997.7231
2018-02-04T03:42:35.375Z,997.6794
2018-02-04T03:43:35.421Z,997.7553
2018-02-04T03:44:35.384Z,997.6981
2018-02-04T03:45:35.378Z,997.7709
2018-02-04T03:46:35.381Z,997.8062
2018-02-04T03:47:35.383Z,997.7729
2018-02-04T03:48:35.434Z,997.7729
2018-02-04T03:49:35.411Z,997.827
2018-02-04T03:50:35.387Z,997.8102
2018-02-04T03:51:35.380Z,997.8726
2018-02-04T03:52:35.391Z,997.8726
2018-02-04T03:53:35.386Z,997.8996
2018-02-04T03:54:35.392Z,997.8778
2018-02-04T03:55:35.722Z,997.9318
2018-02-04T03:56:35.390Z,997.9422
2018-02-04T03:57:35.389Z,997.9879
2018-02-04T03:58:35.394Z,997.9827
2018-02-04T03:59:35.386Z,997.9744
2018-02-04T04:00:35.392Z,998.0419
2018-02-04T04:01:35.442Z,998.1043
2018-02-04T04:02:35.394Z,998.123
2018-02-04T04:03:35.395Z,998.0554
2018-02-04T04:04:35.397Z,998.0959
2018-02-04T04:05:35.398Z,998.123
2018-02-04T04:06:35.393Z,998.0609
2018-02-04T04:07:35.443Z,998.0714
2018-02-04T04:08:35.397Z,998.0577
2018-02-04T04:09:35.407Z,998.1118
2018-02-04T04:10:35.402Z,998.1793
2018-02-04T04:11:35.407Z,998.2604
2018-02-04T04:12:35.401Z,998.3248
2018-02-04T04:13:35.434Z,998.2166
2018-02-04T04:14:35.406Z,998.3434
2018-02-04T04:15:35.400Z,998.3299
2018-02-04T04:16:35.402Z,998.3299
2018-02-04T04:17:35.406Z,998.332
2018-02-04T04:18:35.406Z,998.332
2018-02-04T04:19:35.443Z,998.386
2018-02-04T04:20:35.409Z,998.3995
2018-02-04T04:21:35.407Z,998.3995
2018-02-04T04:22:35.404Z,998.4213
2018-02-04T04:23:35.413Z,998.4316
2018-02-04T04:24:35.407Z,998.4774
2018-02-04T04:25:35.443Z,998.4504
2018-02-04T04:26:35.417Z,998.4401
2018-02-04T04:27:35.420Z,998.4638
2018-02-04T04:28:35.411Z,998.442
2018-02-04T04:29:35.416Z,998.4825
2018-02-04T04:30:35.415Z,998.4877
2018-02-04T04:31:35.463Z,998.5148
2018-02-04T04:32:35.417Z,998.506
2018-02-04T04:33:35.418Z,998.4707
2018-02-04T04:34:35.425Z,998.4977
2018-02-04T04:35:35.421Z,998.522
2018-02-04T04:36:35.429Z,998.4679
2018-02-04T04:37:35.778Z,998.5517
2018-02-04T04:38:35.423Z,998.5895
2018-02-04T04:39:35.427Z,998.6248
2018-02-04T04:40:35.427Z,998.6974
2018-02-04T04:41:35.423Z,998.6808
2018-02-04T04:42:35.433Z,998.657
2018-02-04T04:43:35.633Z,998.6672
2018-02-04T04:44:35.432Z,998.7162
2018-02-04T04:45:35.429Z,998.7079
2018-02-04T04:46:35.431Z,998.7265
2018-02-04T04:47:35.430Z,998.7888
2018-02-04T04:48:35.427Z,998.7888
2018-02-04T04:49:35.633Z,998.8834
2018-02-04T04:50:35.433Z,998.8397
2018-02-04T04:51:35.444Z,998.9073
2018-02-04T04:52:35.434Z,998.8397
2018-02-04T04:53:35.436Z,998.8667
2018-02-04T04:54:35.437Z,998.8635
2018-02-04T04:55:35.466Z,998.8635
2018-02-04T04:56:35.437Z,998.8957
2018-02-04T04:57:35.444Z,998.8469
2018-02-04T04:58:35.440Z,998.8199
2018-02-04T04:59:35.440Z,998.9196
2018-02-04T05:00:35.445Z,998.9414
2018-02-04T05:01:35.845Z,998.9215
2018-02-04T05:02:35.444Z,998.9247
2018-02-04T05:03:35.446Z,998.9839
2018-02-04T05:04:35.453Z,998.9215
2018-02-04T05:05:35.443Z,998.9299
2018-02-04T05:06:35.449Z,998.9891
2018-02-04T05:07:35.496Z,999.0078
2018-02-04T05:08:35.450Z,999.0348
2018-02-04T05:09:35.450Z,999.0673
2018-02-04T05:10:35.448Z,999.0911
2018-02-04T05:11:35.456Z,999.1077
2018-02-04T05:12:35.455Z,999.1264
2018-02-04T05:13:35.492Z,999.1534
2018-02-04T05:14:35.452Z,999.1554
2018-02-04T05:15:35.455Z,999.1824
2018-02-04T05:16:35.458Z,999.2209
2018-02-04T05:17:35.454Z,999.2634
2018-02-04T05:18:35.454Z,999.2905
2018-02-04T05:19:35.505Z,999.2333
2018-02-04T05:20:35.459Z,999.3547
2018-02-04T05:21:35.456Z,999.3246
2018-02-04T05:22:35.459Z,999.3143
2018-02-04T05:23:35.458Z,999.3787
2018-02-04T05:24:35.458Z,999.3329
2018-02-04T05:25:35.990Z,999.3787
2018-02-04T05:26:35.466Z,999.3484
2018-02-04T05:27:35.464Z,999.4243
2018-02-04T05:28:35.467Z,999.4108
2018-02-04T05:29:35.471Z,999.4783
2018-02-04T05:30:35.468Z,999.4211
2018-02-04T05:31:35.637Z,999.4263
2018-02-04T05:32:35.464Z,999.4263
2018-02-04T05:33:35.469Z,999.4449
2018-02-04T05:34:35.468Z,999.4315
2018-02-04T05:35:35.471Z,999.5157
2018-02-04T05:36:35.467Z,999.5125
2018-02-04T05:37:35.510Z,999.4906
2018-02-04T05:38:35.473Z,999.5552
2018-02-04T05:39:35.472Z,999.634
2018-02-04T05:40:35.474Z,999.6121
2018-02-04T05:41:35.472Z,999.634
2018-02-04T05:42:35.478Z,999.6041
2018-02-04T05:43:35.845Z,999.6227
2018-02-04T05:44:35.475Z,999.6662
2018-02-04T05:45:35.485Z,999.709
2018-02-04T05:46:35.474Z,999.736
2018-02-04T05:47:35.476Z,999.7257
2018-02-04T05:48:35.481Z,999.7797
2018-02-04T05:49:37.176Z,999.8607
2018-02-04T05:50:35.481Z,999.8635
2018-02-04T05:51:35.484Z,999.8719
2018-02-04T05:52:35.484Z,999.8854
2018-02-04T05:53:35.484Z,999.9021
2018-02-04T05:54:35.484Z,999.9291
2018-02-04T05:55:35.517Z,999.9832
2018-02-04T05:56:35.492Z,999.9812
2018-02-04T05:57:35.488Z,999.9863
2018-02-04T05:58:35.493Z,1000.0706
2018-02-04T05:59:35.499Z,999.9665
2018-02-04T06:00:35.489Z,1000.0507
2018-02-04T06:01:35.643Z,1000.0776
2018-02-04T06:02:35.497Z,1000.0881
2018-02-04T06:03:35.489Z,1000.0391
2018-02-04T06:04:35.498Z,1000.0932
2018-02-04T06:05:35.492Z,1000.0848
2018-02-04T06:06:35.496Z,1000.0954
2018-02-04T06:07:35.645Z,1000.1629
2018-02-04T06:08:35.500Z,1000.1658
2018-02-04T06:09:35.494Z,1000.1577
2018-02-04T06:10:35.514Z,1000.1899
2018-02-04T06:11:35.501Z,1000.2844
2018-02-04T06:12:35.506Z,1000.2491
2018-02-04T06:13:35.497Z,1000.3352
2018-02-04T06:14:35.510Z,1000.2241
2018-02-04T06:15:35.504Z,1000.3134
2018-02-04T06:16:35.508Z,1000.3861
2018-02-04T06:17:35.505Z,1000.3893
2018-02-04T06:18:35.936Z,1000.4194
2018-02-04T06:19:35.589Z,1000.4391
2018-02-04T06:20:35.505Z,1000.4911
2018-02-04T06:21:35.512Z,1000.486
2018-02-04T06:22:35.556Z,1000.4384
2018-02-04T06:23:35.506Z,1000.4863
2018-02-04T06:24:35.545Z,1000.4958
2018-02-04T06:25:35.514Z,1000.5479
2018-02-04T06:26:35.511Z,1000.5504
2018-02-04T06:27:35.510Z,1000.5545
2018-02-04T06:28:35.518Z,1000.5444
2018-02-04T06:29:35.509Z,1000.5687
2018-02-04T06:30:35.699Z,1000.6448
2018-02-04T06:31:35.523Z,1000.6449
2018-02-04T06:32:35.520Z,1000.6959
2018-02-04T06:33:35.517Z,1000.7263
2018-02-04T06:34:35.519Z,1000.7296
2018-02-04T06:35:35.528Z,1000.7921
2018-02-04T06:36:35.549Z,1000.8192
2018-02-04T06:37:35.513Z,1000.8443
2018-02-04T06:38:35.526Z,1000.8259
2018-02-04T06:39:35.540Z,1000.8239
2018-02-04T06:40:35.522Z,1000.9154
2018-02-04T06:41:35.523Z,1000.897
2018-02-04T06:42:36.002Z,1000.9208
2018-02-04T06:43:35.527Z,1000.9749
2018-02-04T06:44:35.526Z,1000.9176
2018-02-04T06:45:35.530Z,1001.0038
2018-02-04T06:46:35.527Z,1001.0602
2018-02-04T06:47:35.578Z,1001.0861
2018-02-04T06:48:35.562Z,1001.0581
2018-02-04T06:49:35.587Z,1001.1161
2018-02-04T06:50:35.532Z,1001.1372
2018-02-04T06:51:35.536Z,1001.1801
2018-02-04T06:52:35.538Z,1001.1246
2018-02-04T06:53:35.628Z,1001.1643
2018-02-04T06:54:35.732Z,1001.2088
2018-02-04T06:55:35.532Z,1001.2266
2018-02-04T06:56:35.558Z,1001.2402
2018-02-04T06:57:35.537Z,1001.3098
2018-02-04T06:58:35.539Z,1001.3056
2018-02-04T06:59:35.537Z,1001.3179
2018-02-04T07:00:35.935Z,1001.3461
2018-02-04T07:01:35.541Z,1001.4013
2018-02-04T07:02:35.540Z,1001.3594
2018-02-04T07:03:35.545Z,1001.4606
2018-02-04T07:04:35.545Z,1001.4863
2018-02-04T07:05:35.540Z,1001.4082
2018-02-04T07:06:35.941Z,1001.4656
2018-02-04T07:07:35.551Z,1001.4771
2018-02-04T07:08:35.547Z,1001.5291
2018-02-04T07:09:35.616Z,1001.5291
2018-02-04T07:10:35.550Z,1001.4777
2018-02-04T07:11:35.550Z,1001.4944
2018-02-04T07:12:35.589Z,1001.5007
2018-02-04T07:13:35.557Z,1001.6196
2018-02-04T07:14:35.553Z,1001.5789
2018-02-04T07:15:35.549Z,1001.6196
2018-02-04T07:16:35.558Z,1001.5904
2018-02-04T07:17:35.578Z,1001.6446
2018-02-04T07:18:35.600Z,1001.6529
2018-02-04T07:19:35.552Z,1001.6665
2018-02-04T07:20:35.555Z,1001.7363
2018-02-04T07:21:35.630Z,1001.777
2018-02-04T07:22:35.556Z,1001.7498
2018-02-04T07:23:35.601Z,1001.851
2018-02-04T07:24:35.564Z,1001.7999
2018-02-04T07:25:35.559Z,1001.8594
2018-02-04T07:26:35.558Z,1001.8625
2018-02-04T07:27:35.563Z,1001.8842
2018-02-04T07:28:35.562Z,1001.8434
2018-02-04T07:29:35.918Z,1001.9008
2018-02-04T07:30:35.565Z,1001.8873
2018-02-04T07:31:35.564Z,1001.906
2018-02-04T07:32:35.565Z,1001.9363
2018-02-04T07:33:35.569Z,1001.9634
2018-02-04T07:34:35.573Z,1001.9717
2018-02-04T07:35:35.604Z,1001.9634
2018-02-04T07:36:35.569Z,1001.9738
2018-02-04T07:37:35.566Z,1001.9925
2018-02-04T07:38:35.570Z,1001.9925
2018-02-04T07:39:35.568Z,1001.973
2018-02-04T07:40:35.575Z,1002.0032
2018-02-04T07:41:35.616Z,1002.1002
2018-02-04T07:42:35.581Z,1002.1085
2018-02-04T07:43:35.583Z,1002.0929
2018-02-04T07:44:35.576Z,1002.1906
2018-02-04T07:45:35.578Z,1002.1743
2018-02-04T07:46:35.573Z,1002.1885
2018-02-04T07:47:35.622Z,1002.1479
2018-02-04T07:48:35.580Z,1002.2251
2018-02-04T07:49:35.585Z,1002.1928
2018-02-04T07:50:35.631Z,1002.2523
2018-02-04T07:51:35.578Z,1002.2731
2018-02-04T07:52:35.586Z,1002.2647
2018-02-04T07:53:35.614Z,1002.2563
2018-02-04T07:54:35.583Z,1002.2731
2018-02-04T07:55:35.582Z,1002.2813
2018-02-04T07:56:35.585Z,1002.3157
2018-02-04T07:57:35.591Z,1002.2969
2018-02-04T07:58:35.584Z,1002.3242
2018-02-04T17:25:18.996Z,1008.904
2018-02-04T17:26:18.965Z,1008.8644
2018-02-04T17:27:18.945Z,1008.9399
2018-02-04T17:28:18.943Z,1008.9627
2018-02-04T17:29:18.945Z,1008.9378
2018-02-04T17:30:18.950Z,1009.0237
2018-02-04T17:31:18.995Z,1008.9327
2018-02-04T17:32:18.950Z,1008.9504
2018-02-04T17:33:18.954Z,1008.9574
2018-02-04T17:34:18.952Z,1008.9899
2018-02-04T17:35:18.951Z,1009.0327
2018-02-04T17:36:18.949Z,1009.0887
2018-02-04T17:37:18.976Z,1008.9715
2018-02-04T17:38:18.961Z,1009.071
2018-02-04T17:39:18.957Z,1009.0993
2018-02-04T17:40:18.962Z,1009.0552
2018-02-04T17:41:18.953Z,1009.0843
2018-02-04T17:42:19.047Z,1009.1399
2018-02-04T17:43:19.009Z,1009.1623
2018-02-04T17:44:19.025Z,1009.1758
2018-02-04T17:45:18.962Z,1009.2268
2018-02-04T17:46:18.970Z,1009.2216
2018-02-04T17:47:19.035Z,1009.1996
2018-02-04T17:48:19.084Z,1009.2289
2018-02-04T17:49:19.107Z,1009.2949
2018-02-04T17:50:19.033Z,1009.2949
2018-02-04T17:51:19.017Z,1009.3599
2018-02-04T17:52:19.027Z,1009.3127
2018-02-04T17:53:19.178Z,1009.3892
2018-02-04T17:54:19.005Z,1009.3692
2018-02-04T17:55:19.041Z,1009.3516
2018-02-04T17:56:19.044Z,1009.4073
2018-02-04T17:57:19.026Z,1009.4041
2018-02-04T17:58:18.988Z,1009.4094
2018-02-04T17:59:19.076Z,1009.4179
2018-02-04T18:00:19.104Z,1009.4367
2018-02-04T18:01:19.040Z,1009.4595
2018-02-04T18:02:19.035Z,1009.4365
2018-02-04T18:03:19.044Z,1009.4941
2018-02-04T18:04:19.093Z,1009.4753
2018-02-04T18:05:19.061Z,1009.4994
2018-02-04T18:06:18.984Z,1009.5706
2018-02-04T18:07:19.026Z,1009.4941
2018-02-04T18:08:18.982Z,1009.4941
2018-02-04T18:09:18.977Z,1009.5046
2018-02-04T18:10:19.010Z,1009.5507
2018-02-04T18:11:18.977Z,1009.5936
2018-02-04T18:12:18.981Z,1009.5873
2018-02-04T18:13:19.033Z,1009.5737
2018-02-04T18:14:18.981Z,1009.6189
2018-02-04T18:15:19.018Z,1009.6513
2018-02-04T18:16:18.984Z,1009.6094
2018-02-04T18:17:18.994Z,1009.6314
2018-02-04T18:18:18.986Z,1009.6219
2018-02-04T18:19:19.138Z,1009.644
2018-02-04T18:20:18.994Z,1009.6627
2018-02-04T18:21:19.026Z,1009.6879
2018-02-04T18:22:18.987Z,1009.7151
2018-02-04T18:23:18.990Z,1009.7455
2018-02-04T18:24:18.991Z,1009.7696
2018-02-04T18:25:18.997Z,1009.7592
2018-02-04T18:26:19.029Z,1009.7351
2018-02-04T18:27:19.006Z,1009.7905
2018-02-04T18:28:18.999Z,1009.8124
2018-02-04T18:29:18.999Z,1009.8387
2018-02-04T18:30:18.998Z,1009.7631
2018-02-04T18:31:18.996Z,1009.7885
2018-02-04T18:32:19.038Z,1009.8346
2018-02-04T18:33:19.000Z,1009.803
2018-02-04T18:34:19.002Z,1009.8754
2018-02-04T18:35:19.056Z,1009.8577
2018-02-04T18:36:19.072Z,1009.8494
2018-02-04T18:37:19.232Z,1009.9183
2018-02-04T18:38:19.081Z,1009.8535
2018-02-04T18:39:19.069Z,1009.886
2018-02-04T18:40:19.063Z,1009.9208
2018-02-04T18:41:19.080Z,1009.9216
2018-02-04T18:42:19.070Z,1009.8661
2018-02-04T18:43:19.038Z,1009.9205
2018-02-04T18:44:19.081Z,1009.9018
2018-02-04T18:45:19.080Z,1009.8914
2018-02-04T18:46:19.013Z,1009.8661
2018-02-04T18:47:19.089Z,1009.9154
2018-02-04T18:48:19.200Z,1009.9794
2018-02-04T18:49:19.018Z,1009.9658
2018-02-04T18:50:19.086Z,1009.9802
2018-02-04T18:51:19.076Z,1010.019
2018-02-04T18:52:19.080Z,1009.9918
2018-02-04T18:53:19.091Z,1010.0515
2018-02-04T18:54:19.100Z,1010.0535
2018-02-04T18:55:19.019Z,1010.015
2018-02-04T18:56:19.022Z,1010.0326
2018-02-04T18:57:19.027Z,1010.0159
2018-02-04T18:58:19.025Z,1010.0467
2018-02-04T18:59:19.115Z,1010.1255
2018-02-04T19:00:19.019Z,1010.1139
2018-02-04T19:01:19.032Z,1010.1691
2018-02-04T19:02:19.028Z,1010.1475
2018-02-04T19:03:19.032Z,1010.1599
2018-02-04T19:04:19.031Z,1010.1839
2018-02-04T19:05:19.052Z,1010.1776
2018-02-04T19:06:19.031Z,1010.1715
2018-02-04T19:07:19.149Z,1010.2499
2018-02-04T19:08:19.087Z,1010.2267
2018-02-04T19:09:19.042Z,1010.1964
2018-02-04T19:10:19.148Z,1010.1932
2018-02-04T19:11:19.105Z,1010.1954
2018-02-04T19:12:19.040Z,1010.2707
2018-02-04T19:13:19.086Z,1010.2946
2018-02-04T19:14:19.076Z,1010.2779
2018-02-04T19:15:19.104Z,1010.2685
2018-02-04T19:16:19.120Z,1010.2958
2018-02-04T19:17:19.101Z,1010.2706
2018-02-04T19:18:19.101Z,1010.281
2018-02-04T19:19:19.122Z,1010.3134
2018-02-04T19:20:19.093Z,1010.353
2018-02-04T19:21:19.148Z,1010.2601
2018-02-04T19:22:19.107Z,1010.3657
2018-02-04T19:23:19.112Z,1010.3593
2018-02-04T19:24:19.116Z,1010.312
2018-02-04T19:25:19.102Z,1010.358
2018-02-04T19:26:19.041Z,1010.3173
2018-02-04T19:27:19.077Z,1010.3632
2018-02-04T19:28:19.113Z,1010.3309
2018-02-04T19:29:19.047Z,1010.3068
2018-02-04T19:30:19.049Z,1010.3424
2018-02-04T19:31:19.050Z,1010.356
2018-02-04T19:32:19.083Z,1010.3749
2018-02-04T19:33:19.058Z,1010.3938
2018-02-04T19:34:19.078Z,1010.3802
2018-02-04T19:35:19.053Z,1010.4046
2018-02-04T19:36:19.051Z,1010.4066
2018-02-04T19:37:19.053Z,1010.4074
2018-02-04T19:38:19.489Z,1010.4576
2018-02-04T19:39:19.071Z,1010.45
2018-02-04T19:40:19.057Z,1010.4219
2018-02-04T19:41:19.085Z,1010.5378
2018-02-04T19:42:19.065Z,1010.5117
2018-02-04T19:43:19.054Z,1010.5636
2018-02-04T19:44:19.091Z,1010.5815
2018-02-04T19:45:19.401Z,1010.6145
2018-02-04T19:46:19.684Z,1010.6544
2018-02-04T19:47:19.066Z,1010.6415
2018-02-04T19:48:19.071Z,1010.7001
2018-02-04T19:49:19.283Z,1010.6445
2018-02-04T19:50:19.066Z,1010.6568
2018-02-04T19:51:19.068Z,1010.6743
2018-02-04T19:52:20.142Z,1010.7001
2018-02-04T19:53:19.073Z,1010.7228
2018-02-04T19:54:19.358Z,1010.7154
2018-02-04T19:55:19.150Z,1010.6892
2018-02-04T19:56:19.068Z,1010.6951
2018-02-04T19:57:19.087Z,1010.6375
2018-02-04T19:59:29.244Z,1010.7238
2018-02-04T20:00:29.239Z,1010.7833
2018-02-04T20:01:29.232Z,1010.8146
2018-02-04T20:02:29.259Z,1010.8572
2018-02-04T20:03:29.620Z,1010.8696
2018-02-04T20:04:29.238Z,1010.8987
2018-02-04T20:05:29.246Z,1010.8912
2018-02-04T20:06:29.246Z,1010.939
2018-02-04T20:07:29.442Z,1010.9221
2018-02-04T20:08:29.248Z,1010.9179
2018-02-04T20:09:29.249Z,1010.9179
2018-02-04T20:10:29.244Z,1010.9437
2018-02-04T20:11:29.249Z,1011.0117
2018-02-04T20:12:29.286Z,1011.0209
2018-02-04T20:13:29.251Z,1011.072
2018-02-04T20:14:29.247Z,1011.0467
2018-02-04T20:15:29.244Z,1011.0706
2018-02-04T20:16:29.250Z,1011.0153
2018-02-04T20:17:29.269Z,1011.1071
2018-02-04T20:18:29.254Z,1011.0566
2018-02-04T20:19:29.252Z,1011.0904
2018-02-04T20:20:29.264Z,1011.0739
2018-02-04T20:21:29.296Z,1011.0945
2018-02-04T20:22:29.279Z,1011.1049
2018-02-04T20:23:29.266Z,1011.139
2018-02-04T20:24:29.253Z,1011.1035
2018-02-04T20:25:29.271Z,1011.0753
2018-02-04T20:26:29.258Z,1011.1754
2018-02-04T20:27:29.292Z,1011.1488
2018-02-04T20:28:29.265Z,1011.1979
2018-02-04T20:29:29.297Z,1011.1965
2018-02-04T20:30:29.261Z,1011.2123
2018-02-04T20:31:29.266Z,1011.2227
2018-02-04T20:32:29.298Z,1011.2704
2018-02-04T20:33:29.264Z,1011.2095
2018-02-04T20:34:29.266Z,1011.2826
2018-02-04T20:35:29.262Z,1011.2137
2018-02-04T20:36:29.295Z,1011.2375
2018-02-04T20:37:29.331Z,1011.2581
2018-02-04T20:38:29.265Z,1011.2548
2018-02-04T20:39:29.272Z,1011.3245
2018-02-04T20:40:29.265Z,1011.3571
2018-02-04T20:41:29.267Z,1011.3184
2018-02-04T20:42:29.292Z,1011.3151
2018-02-04T20:43:29.300Z,1011.366
2018-02-04T20:44:29.292Z,1011.3594
2018-02-04T20:45:29.303Z,1011.348
2018-02-04T20:46:29.336Z,1011.399
2018-02-04T20:47:29.278Z,1011.3823
2018-02-04T20:48:29.300Z,1011.4468
2018-02-04T20:49:29.277Z,1011.3976
2018-02-04T20:50:29.282Z,1011.4182
2018-02-04T20:51:29.283Z,1011.3984
2018-02-04T20:52:29.279Z,1011.3816
2018-02-04T20:53:29.305Z,1011.4241
2018-02-04T20:54:29.281Z,1011.4802
2018-02-04T20:55:29.280Z,1011.4279
2018-02-04T20:56:29.288Z,1011.4957
2018-02-04T20:57:29.280Z,1011.3839
2018-02-04T20:58:29.311Z,1011.4913
2018-02-04T20:59:29.290Z,1011.5371
2018-02-04T21:00:29.288Z,1011.4982
2018-02-04T21:01:29.313Z,1011.595
2018-02-04T21:02:29.294Z,1011.5646
2018-02-04T21:03:29.315Z,1011.5447